首页
METAR-TAF:

METAR-TAF

机场 :

阿什维尔, 北卡罗来纳州, 美国

纬度: 35-25-55N, 经度: 082-32-15W, 海拔: 660米

当前天气观测

该预报发布于1小时和1分钟前的09:54 UTC
风速6节,风向
温度 16°C
湿度 59%
气压 1017 hPa
能見度: 16.1公里
天空无云

METAR: KAVL 240954Z AUTO 36006KT 10SM CLR 16/08 A3002 RMK AO2 SLP140 T01560078

时间: 06:55 (10:55 UTC)

预报

该预报发布于5小时和24分钟前的05:31 UTC
预报有效从24日的 06点(UTC)到 25日的 06点(UTC)
风速7节,风向北转西北
能見度: 10公里
多云层高于25000英尺
从 24日的 1800点(UTC)
风速10节,风向西转西南,有时为18节阵风
能見度: 10公里
散云层高于25000英尺
从 25日的 0000点(UTC)
风速8节,风向西南
能見度: 10公里
多云层高于25000英尺
从 25日的 0400点(UTC)
风速2节,风向多变
能見度: 10公里
多云层高于25000英尺

TAF: KAVL 240531Z 2406/2506 34007KT P6SM BKN250 FM241800 24010G18KT P6SM SCT250 FM250000 22008KT P6SM BKN250 FM250400 VRB02KT P6SM BKN250

超过4000个机场的气象观测和天气预报(METAR&TAF报告)。

可查询的气象台以黄色和红色小点在地图上表示。

将鼠标移到小点上方,可查看气象台名称。

然后点击查看天气观测和预报。

如需切换地图:点击带黑十字的绿色按钮放大地图;点击带横线的绿色按钮缩小地图;或者点击绿色箭头查看邻近地区的地图。


METAR-TAF: